Time;durP1;ratioP1;P1;durP2;ratioP2;P2;SDS_P1;SDS_P2;PMS_P1;PMS_P2;Temp;Humidity;BMP_temperature;BMP_pressure;BME280_temperature;BME280_humidity;BME280_pressure;Samples;Min_cycle;Max_cycle;Signal;HPM_P1;HPM_P2
2021/05/21 00:00:05;;;;;;;11.17;8.20;;;11.00;77.80;;;;;;5055670;28;20773;-84
2021/05/21 00:02:30;;;;;;;15.63;10.87;;;11.00;78.10;;;;;;5038000;28;20207;-84
2021/05/21 00:04:56;;;;;;;12.20;8.77;;;10.90;78.00;;;;;;5037887;28;20607;-84
2021/05/21 00:07:21;;;;;;;10.70;8.63;;;10.90;78.10;;;;;;5037625;28;20196;-84
2021/05/21 00:09:47;;;;;;;10.87;7.57;;;10.90;78.20;;;;;;5037634;28;20664;-84
2021/05/21 00:12:12;;;;;;;14.13;8.83;;;10.90;78.20;;;;;;5037666;28;20367;-84
2021/05/21 00:14:38;;;;;;;10.80;8.27;;;10.80;78.20;;;;;;5055530;28;20178;-84
2021/05/21 00:17:04;;;;;;;11.83;8.43;;;10.80;78.20;;;;;;5037590;28;20176;-84
2021/05/21 00:19:29;;;;;;;11.17;8.57;;;10.80;78.20;;;;;;5038265;28;20188;-85
2021/05/21 00:21:55;;;;;;;10.20;7.53;;;10.90;78.30;;;;;;5037788;28;20183;-84
2021/05/21 00:24:20;;;;;;;9.27;8.27;;;10.80;78.30;;;;;;5037479;28;20644;-84
2021/05/21 00:26:49;;;;;;;13.77;8.57;;;10.70;78.40;;;;;;5037353;28;20264;-84
2021/05/21 00:29:15;;;;;;;10.67;8.40;;;10.70;78.50;;;;;;5037324;28;20200;-84
2021/05/21 00:31:41;;;;;;;11.23;8.80;;;10.50;78.70;;;;;;5037327;28;20215;-84
2021/05/21 00:34:07;;;;;;;10.70;8.67;;;10.60;78.70;;;;;;5055095;28;20620;-84
2021/05/21 00:36:32;;;;;;;10.13;8.43;;;10.50;78.80;;;;;;5037124;28;20271;-84
2021/05/21 00:38:58;;;;;;;10.57;8.77;;;10.40;79.20;;;;;;5037020;28;20687;-84
2021/05/21 00:41:25;;;;;;;10.27;8.53;;;10.30;79.90;;;;;;5037046;28;20191;-84
2021/05/21 00:43:56;;;;;;;14.90;9.30;;;10.40;79.90;;;;;;5037098;28;20184;-84
2021/05/21 00:46:21;;;;;;;10.63;8.97;;;10.30;80.10;;;;;;5036907;28;20203;-84
2021/05/21 00:48:47;;;;;;;11.57;9.70;;;10.30;80.10;;;;;;5054397;28;20660;-84
2021/05/21 00:51:12;;;;;;;11.60;10.23;;;10.20;80.70;;;;;;5054720;28;20243;-84
2021/05/21 00:53:41;;;;;;;14.20;9.80;;;10.20;81.00;;;;;;5036908;28;20172;-84
2021/05/21 00:56:08;;;;;;;14.17;10.97;;;10.20;81.20;;;;;;5036740;28;20179;-84
2021/05/21 00:58:36;;;;;;;12.30;9.77;;;10.20;81.30;;;;;;5054460;28;20583;-84
2021/05/21 01:01:03;;;;;;;14.30;9.77;;;10.20;81.30;;;;;;5054534;28;20186;-84
2021/05/21 01:03:29;;;;;;;13.70;11.03;;;10.20;81.50;;;;;;5036629;28;20648;-84
2021/05/21 01:05:54;;;;;;;14.17;10.37;;;10.20;81.60;;;;;;5054461;28;20251;-84
2021/05/21 01:08:20;;;;;;;12.33;10.73;;;10.20;81.70;;;;;;5035854;28;20303;-84
2021/05/21 01:10:45;;;;;;;14.53;10.27;;;10.30;81.80;;;;;;5036325;28;20616;-84
2021/05/21 01:13:12;;;;;;;12.03;9.67;;;10.30;81.60;;;;;;5036514;28;20183;-84
2021/05/21 01:15:39;;;;;;;13.63;10.83;;;10.30;81.80;;;;;;5054248;28;20183;-84
2021/05/21 01:18:09;;;;;;;13.47;10.50;;;10.30;81.60;;;;;;5036320;28;20210;-84
2021/05/21 01:20:36;;;;;;;14.73;10.33;;;10.20;81.60;;;;;;5036209;28;20204;-84
2021/05/21 01:23:05;;;;;;;14.30;10.53;;;10.10;82.00;;;;;;5036299;28;20172;-84
2021/05/21 01:25:33;;;;;;;15.73;10.60;;;10.00;82.50;;;;;;5036194;28;20179;-84
2021/05/21 01:27:59;;;;;;;15.93;10.97;;;9.90;82.70;;;;;;5036080;28;20199;-84
2021/05/21 01:30:27;;;;;;;16.90;11.13;;;9.90;83.10;;;;;;5036082;28;20198;-84
2021/05/21 01:32:53;;;;;;;13.50;10.63;;;9.80;83.10;;;;;;5054265;28;20225;-84
2021/05/21 01:35:19;;;;;;;13.53;10.20;;;9.80;83.00;;;;;;5036046;28;20266;-84
2021/05/21 01:37:47;;;;;;;15.33;9.90;;;9.80;83.00;;;;;;5035883;28;20270;-84
2021/05/21 01:40:14;;;;;;;12.47;10.23;;;9.80;83.00;;;;;;5035907;28;20725;-84
2021/05/21 01:42:40;;;;;;;11.60;9.80;;;9.80;83.00;;;;;;5036042;28;20207;-84
2021/05/21 01:45:07;;;;;;;11.10;9.07;;;9.70;83.20;;;;;;5035851;28;20674;-84
2021/05/21 01:47:33;;;;;;;13.90;10.37;;;9.70;83.00;;;;;;5035678;28;20201;-84
2021/05/21 01:50:00;;;;;;;12.37;10.13;;;9.70;82.80;;;;;;5053383;28;20262;-84
2021/05/21 01:52:26;;;;;;;10.90;9.80;;;9.60;83.00;;;;;;5035665;28;20203;-84
2021/05/21 01:54:52;;;;;;;12.90;10.20;;;9.60;82.90;;;;;;5053513;28;20211;-84
2021/05/21 01:57:18;;;;;;;11.00;9.20;;;9.60;83.00;;;;;;5035639;28;20726;-84
2021/05/21 01:59:43;;;;;;;12.77;9.90;;;9.60;83.00;;;;;;5035506;28;20235;-84
2021/05/21 02:02:09;;;;;;;13.23;10.43;;;9.60;82.90;;;;;;5053413;28;20183;-84
2021/05/21 02:04:37;;;;;;;12.50;9.90;;;9.60;82.80;;;;;;5035532;28;20218;-84
2021/05/21 02:07:04;;;;;;;15.23;10.23;;;9.70;82.50;;;;;;5035408;28;20180;-84
2021/05/21 02:09:50;;;;;;;13.60;10.13;;;9.60;82.50;;;;;;5053437;28;20673;-84
2021/05/21 02:12:15;;;;;;;13.00;9.60;;;9.60;82.60;;;;;;5035447;28;20172;-84
2021/05/21 02:14:41;;;;;;;14.40;9.70;;;9.70;82.60;;;;;;5035434;28;20172;-84
2021/05/21 02:17:07;;;;;;;13.13;9.77;;;9.60;82.70;;;;;;5053218;28;20176;-84
2021/05/21 02:19:32;;;;;;;12.20;8.90;;;9.70;82.90;;;;;;5053241;28;20196;-84
2021/05/21 02:21:59;;;;;;;16.50;10.53;;;9.70;83.10;;;;;;5053412;28;20221;-84
2021/05/21 02:24:24;;;;;;;13.60;9.27;;;9.70;83.10;;;;;;5035273;28;20238;-84
2021/05/21 02:26:50;;;;;;;14.23;10.40;;;9.70;83.30;;;;;;5035259;28;20176;-84
2021/05/21 02:29:15;;;;;;;13.17;10.30;;;9.70;83.30;;;;;;5053179;28;20215;-84
2021/05/21 02:31:41;;;;;;;13.67;10.10;;;9.80;83.30;;;;;;5035273;28;20621;-84
2021/05/21 02:34:06;;;;;;;11.63;9.97;;;9.80;83.50;;;;;;5035227;28;20172;-84
2021/05/21 02:36:32;;;;;;;15.33;9.93;;;9.80;83.30;;;;;;5035215;28;20631;-84
2021/05/21 02:38:58;;;;;;;13.93;10.40;;;9.80;83.60;;;;;;5052878;28;20278;-84
2021/05/21 02:41:23;;;;;;;13.30;9.83;;;9.80;83.70;;;;;;5035162;28;20179;-84
2021/05/21 02:43:49;;;;;;;11.70;9.97;;;9.90;83.70;;;;;;5053612;28;20628;-84
2021/05/21 02:46:15;;;;;;;14.37;8.87;;;9.90;83.80;;;;;;5052875;28;20176;-84
2021/05/21 02:48:41;;;;;;;13.73;11.00;;;9.90;83.60;;;;;;5052765;28;20222;-84
2021/05/21 02:51:06;;;;;;;12.90;9.33;;;9.90;83.70;;;;;;5035074;28;20172;-84
2021/05/21 02:53:32;;;;;;;15.00;9.97;;;9.90;83.60;;;;;;5035024;28;20636;-84
2021/05/21 02:55:57;;;;;;;11.57;9.50;;;9.90;83.70;;;;;;5034933;28;20263;-84
2021/05/21 02:58:23;;;;;;;12.37;9.83;;;9.90;83.80;;;;;;5052789;28;20259;-84
2021/05/21 03:00:49;;;;;;;14.67;9.77;;;9.90;83.90;;;;;;5052786;28;20194;-84
2021/05/21 03:03:14;;;;;;;11.23;8.63;;;9.80;84.10;;;;;;5053068;28;20639;-84
2021/05/21 03:05:40;;;;;;;12.77;9.60;;;9.80;84.00;;;;;;5034907;28;20206;-84
2021/05/21 03:08:05;;;;;;;15.47;9.10;;;9.80;84.00;;;;;;5034910;28;20738;-84
2021/05/21 03:10:31;;;;;;;11.47;8.90;;;9.80;84.00;;;;;;5052632;28;20188;-84
2021/05/21 03:12:57;;;;;;;11.50;8.97;;;9.80;84.20;;;;;;5053005;28;20243;-84
2021/05/21 03:15:23;;;;;;;13.17;9.17;;;9.80;84.10;;;;;;5034942;28;20168;-84
2021/05/21 03:17:49;;;;;;;13.67;9.53;;;9.80;84.10;;;;;;5034843;28;20176;-84
2021/05/21 03:20:15;;;;;;;10.30;8.00;;;9.80;84.20;;;;;;5034683;28;20200;-84
2021/05/21 03:22:41;;;;;;;11.17;8.53;;;9.80;84.20;;;;;;5052912;28;20180;-84
2021/05/21 03:25:07;;;;;;;9.57;8.57;;;9.90;83.90;;;;;;5052582;28;20546;-84
2021/05/21 03:27:34;;;;;;;12.13;8.53;;;9.90;83.90;;;;;;5034548;28;20322;-84
2021/05/21 03:30:00;;;;;;;10.70;7.90;;;10.00;83.80;;;;;;5034677;28;20202;-84
2021/05/21 03:32:27;;;;;;;15.10;8.10;;;10.00;84.00;;;;;;5036266;28;20172;-84
2021/05/21 03:34:53;;;;;;;9.97;7.83;;;10.00;83.70;;;;;;5056142;28;20199;-84
2021/05/21 03:37:19;;;;;;;13.00;8.53;;;10.00;83.90;;;;;;5038276;28;20222;-84
2021/05/21 03:39:44;;;;;;;10.50;7.87;;;10.00;83.60;;;;;;5056003;28;20227;-84
2021/05/21 03:42:10;;;;;;;11.33;8.57;;;10.00;83.70;;;;;;5056254;28;20588;-84
2021/05/21 03:44:36;;;;;;;11.07;8.10;;;10.00;83.60;;;;;;5038117;28;20199;-84
2021/05/21 03:47:02;;;;;;;12.80;8.30;;;10.00;83.70;;;;;;5038047;28;20552;-84
2021/05/21 03:49:29;;;;;;;9.97;8.20;;;10.00;83.60;;;;;;5037816;28;20211;-84
2021/05/21 03:51:55;;;;;;;12.57;7.80;;;10.10;83.60;;;;;;5037989;28;20183;-84
2021/05/21 03:54:21;;;;;;;11.10;7.77;;;10.10;83.50;;;;;;5055820;28;20176;-84
2021/05/21 03:56:47;;;;;;;10.13;7.33;;;10.10;83.40;;;;;;5037889;28;20187;-84
2021/05/21 03:59:12;;;;;;;11.53;7.53;;;10.10;83.40;;;;;;5037832;28;20196;-84
2021/05/21 04:01:38;;;;;;;10.50;8.20;;;10.10;83.40;;;;;;5037860;28;20230;-84
2021/05/21 04:04:05;;;;;;;11.27;7.37;;;10.10;83.40;;;;;;5055660;28;20266;-84
2021/05/21 04:06:30;;;;;;;13.10;8.23;;;10.10;83.60;;;;;;5037690;28;20637;-84
2021/05/21 04:08:56;;;;;;;9.90;7.77;;;10.20;83.50;;;;;;5037537;28;20303;-84
2021/05/21 04:11:22;;;;;;;9.27;7.37;;;10.10;83.70;;;;;;5055468;28;20635;-84
2021/05/21 04:13:48;;;;;;;13.97;7.67;;;10.20;83.80;;;;;;5055475;28;20640;-84
2021/05/21 04:16:13;;;;;;;9.70;7.80;;;10.20;83.70;;;;;;5037534;28;20548;-84
2021/05/21 04:18:40;;;;;;;8.93;6.87;;;10.20;83.60;;;;;;5037517;28;20176;-84
2021/05/21 04:21:05;;;;;;;10.47;6.67;;;10.20;83.50;;;;;;5055329;28;20676;-84
2021/05/21 04:23:31;;;;;;;10.17;6.50;;;10.20;83.60;;;;;;5037393;28;20176;-84
2021/05/21 04:25:58;;;;;;;9.60;7.37;;;10.30;83.70;;;;;;5037337;28;20230;-84
2021/05/21 04:28:23;;;;;;;9.17;6.60;;;10.30;83.60;;;;;;5037297;28;20207;-84
2021/05/21 04:30:51;;;;;;;11.87;7.50;;;10.30;83.60;;;;;;5055244;28;20561;-84
2021/05/21 04:33:17;;;;;;;8.47;6.40;;;10.30;83.40;;;;;;5055294;28;20164;-84
2021/05/21 04:35:42;;;;;;;7.93;6.27;;;10.30;83.30;;;;;;5037260;28;20663;-84
2021/05/21 04:38:08;;;;;;;6.83;6.13;;;10.30;83.30;;;;;;5055645;28;20183;-84
2021/05/21 04:40:34;;;;;;;9.50;6.47;;;10.40;83.10;;;;;;5055059;28;20277;-84
2021/05/21 04:42:59;;;;;;;8.27;6.03;;;10.40;82.80;;;;;;5054758;28;20226;-84
2021/05/21 04:45:25;;;;;;;8.97;5.73;;;10.50;82.80;;;;;;5054417;28;20172;-84
2021/05/21 04:47:50;;;;;;;9.23;5.83;;;10.50;82.90;;;;;;5054782;28;20225;-84
2021/05/21 04:50:16;;;;;;;6.63;5.47;;;10.50;82.50;;;;;;5036824;28;20548;-84
2021/05/21 04:52:42;;;;;;;7.97;4.70;;;10.60;82.10;;;;;;5054719;28;20226;-84
2021/05/21 04:55:08;;;;;;;8.30;5.20;;;10.60;81.90;;;;;;5036866;28;20658;-84
2021/05/21 04:57:34;;;;;;;5.77;4.87;;;10.70;82.00;;;;;;5055205;28;20620;-84
2021/05/21 04:59:59;;;;;;;5.30;4.80;;;10.70;81.30;;;;;;5054867;28;20188;-84
2021/05/21 05:02:25;;;;;;;5.97;4.77;;;10.80;81.20;;;;;;5054619;28;20521;-84
2021/05/21 05:04:50;;;;;;;6.40;4.87;;;10.80;81.50;;;;;;5037570;28;20176;-84
2021/05/21 05:07:16;;;;;;;8.50;5.10;;;10.80;81.40;;;;;;5037197;28;20172;-84
2021/05/21 05:09:41;;;;;;;5.60;5.07;;;10.80;80.90;;;;;;5054578;28;20667;-84
2021/05/21 05:12:07;;;;;;;5.93;4.43;;;10.80;80.50;;;;;;5054425;28;20193;-84
2021/05/21 05:14:33;;;;;;;6.20;4.73;;;10.90;80.70;;;;;;5036548;28;20557;-84
2021/05/21 05:16:58;;;;;;;8.03;4.47;;;11.00;80.50;;;;;;5036555;28;20186;-83
2021/05/21 05:19:24;;;;;;;6.30;4.20;;;11.00;80.10;;;;;;5054216;28;20203;-84
2021/05/21 05:21:50;;;;;;;9.57;4.10;;;11.00;80.30;;;;;;5036271;28;20243;-84
2021/05/21 05:24:18;;;;;;;4.97;3.90;;;11.10;80.10;;;;;;5036398;28;20183;-84
2021/05/21 05:26:44;;;;;;;4.83;3.87;;;11.10;80.00;;;;;;5054159;28;20338;-84
2021/05/21 05:29:10;;;;;;;4.63;3.37;;;11.20;80.10;;;;;;5054089;28;20223;-84
2021/05/21 05:31:37;;;;;;;8.87;3.70;;;11.20;80.00;;;;;;5054368;28;20215;-84
2021/05/21 05:34:03;;;;;;;5.20;3.63;;;11.30;79.60;;;;;;5036277;28;20168;-84
2021/05/21 05:36:28;;;;;;;4.70;4.00;;;11.40;79.70;;;;;;5036171;28;20262;-84
2021/05/21 05:38:54;;;;;;;7.07;3.80;;;11.50;79.90;;;;;;5036110;28;20246;-84
2021/05/21 05:41:20;;;;;;;6.30;3.83;;;11.60;80.10;;;;;;5053862;28;20177;-84
2021/05/21 05:43:45;;;;;;;6.70;3.77;;;11.70;79.80;;;;;;5036011;28;20183;-84
2021/05/21 05:46:11;;;;;;;5.53;4.27;;;11.80;80.00;;;;;;5053703;28;20187;-84
2021/05/21 05:48:37;;;;;;;4.00;3.60;;;11.80;79.60;;;;;;5035559;28;20663;-84
2021/05/21 05:51:03;;;;;;;5.67;4.00;;;11.80;79.90;;;;;;5053777;28;20172;-84
2021/05/21 05:53:37;;;;;;;4.30;3.90;;;11.90;80.00;;;;;;5036585;28;20173;-84
2021/05/21 05:56:05;;;;;;;4.60;3.47;;;11.90;79.80;;;;;;5053416;28;20543;-84
2021/05/21 05:58:31;;;;;;;5.67;3.40;;;12.00;79.50;;;;;;5035684;28;20176;-84
2021/05/21 06:00:58;;;;;;;5.53;4.00;;;12.00;79.70;;;;;;5053379;28;20671;-84
2021/05/21 06:03:24;;;;;;;5.00;2.70;;;12.10;79.10;;;;;;5035628;28;20183;-84
2021/05/21 06:05:50;;;;;;;4.00;3.00;;;12.10;78.70;;;;;;5035584;28;20607;-84
2021/05/21 06:08:16;;;;;;;3.80;2.80;;;12.20;78.80;;;;;;5053439;28;20571;-84
2021/05/21 06:10:42;;;;;;;6.47;3.13;;;12.30;79.00;;;;;;5053408;28;20257;-84
2021/05/21 06:13:09;;;;;;;2.97;2.20;;;12.50;78.30;;;;;;5035662;28;20658;-84
2021/05/21 06:15:36;;;;;;;4.10;2.20;;;12.80;77.10;;;;;;5035438;28;20659;-83
2021/05/21 06:18:02;;;;;;;7.30;2.57;;;12.90;75.70;;;;;;5053620;28;20196;-83
2021/05/21 06:20:31;;;;;;;7.30;2.83;;;13.00;75.60;;;;;;5035434;28;20196;-82
2021/05/21 06:22:56;;;;;;;2.80;2.10;;;13.00;75.80;;;;;;5035376;28;20184;-83
2021/05/21 06:25:28;;;;;;;4.20;2.43;;;13.00;75.30;;;;;;5035450;28;20194;-83
2021/05/21 06:27:53;;;;;;;3.50;1.80;;;13.00;75.70;;;;;;5035438;28;20234;-82
2021/05/21 06:30:19;;;;;;;3.10;2.00;;;13.20;73.70;;;;;;5035256;28;20204;-82
2021/05/21 06:32:45;;;;;;;2.37;1.87;;;13.20;73.20;;;;;;5053122;28;20524;-82
2021/05/21 06:35:12;;;;;;;5.07;1.80;;;13.30;73.40;;;;;;5035284;28;20179;-83
2021/05/21 06:37:39;;;;;;;2.90;1.67;;;13.30;73.40;;;;;;5035267;28;20176;-82
2021/05/21 06:40:06;;;;;;;4.23;1.77;;;13.40;72.90;;;;;;5053052;28;20249;-82
2021/05/21 06:42:32;;;;;;;2.40;1.93;;;13.40;72.60;;;;;;5053129;28;20210;-83
2021/05/21 06:44:58;;;;;;;2.37;1.83;;;13.40;72.50;;;;;;5053084;28;20172;-82
2021/05/21 06:47:23;;;;;;;7.93;4.53;;;13.50;74.00;;;;;;5053235;28;20552;-82
2021/05/21 06:49:49;;;;;;;3.20;2.50;;;13.50;73.80;;;;;;5052854;28;20668;-82
2021/05/21 06:52:15;;;;;;;7.07;2.27;;;13.60;72.50;;;;;;5035446;28;20187;-82
2021/05/21 06:54:43;;;;;;;4.63;2.27;;;13.70;73.50;;;;;;5052960;28;20172;-82
2021/05/21 06:57:10;;;;;;;4.63;1.90;;;13.80;73.60;;;;;;5053193;28;20644;-82
2021/05/21 06:59:36;;;;;;;4.53;1.90;;;13.80;74.40;;;;;;5034883;28;20195;-82
2021/05/21 07:02:02;;;;;;;6.20;2.20;;;13.80;73.10;;;;;;5052892;28;20183;-82
2021/05/21 07:04:28;;;;;;;3.43;1.93;;;13.70;73.00;;;;;;5052794;28;20173;-83
2021/05/21 07:06:54;;;;;;;2.60;1.80;;;13.80;73.70;;;;;;5053626;28;20570;-83
2021/05/21 07:09:19;;;;;;;4.40;2.03;;;13.70;73.60;;;;;;5038743;28;20211;-83
2021/05/21 07:11:45;;;;;;;2.80;1.53;;;13.70;72.50;;;;;;5038792;28;20545;-83
2021/05/21 07:14:11;;;;;;;4.43;1.90;;;13.50;73.10;;;;;;5038814;28;20176;-83
2021/05/21 07:16:37;;;;;;;6.73;2.07;;;13.50;72.70;;;;;;5056655;28;20168;-82
2021/05/21 07:19:03;;;;;;;3.30;1.93;;;13.50;73.60;;;;;;5038628;28;20577;-82
2021/05/21 07:21:29;;;;;;;6.13;1.93;;;13.60;74.00;;;;;;5038600;28;20175;-83
2021/05/21 07:23:54;;;;;;;6.00;2.17;;;13.60;73.10;;;;;;5038580;28;20621;-83
2021/05/21 07:26:20;;;;;;;6.77;2.23;;;13.70;73.50;;;;;;5038545;28;20183;-82
2021/05/21 07:28:47;;;;;;;5.87;1.90;;;13.70;73.50;;;;;;5056638;28;20541;-83
2021/05/21 07:31:13;;;;;;;7.67;2.30;;;13.80;73.50;;;;;;5056308;28;20545;-83
2021/05/21 07:33:38;;;;;;;3.63;2.43;;;13.70;74.00;;;;;;5056363;28;20225;-83
2021/05/21 07:36:05;;;;;;;8.47;2.27;;;13.70;73.40;;;;;;5038412;28;20176;-83
2021/05/21 07:38:35;;;;;;;6.03;1.70;;;13.50;73.80;;;;;;5038403;28;20176;-82
2021/05/21 07:41:01;;;;;;;4.47;2.03;;;13.50;75.10;;;;;;5056476;28;20321;-83
2021/05/21 07:43:26;;;;;;;7.83;2.40;;;13.30;75.60;;;;;;5056077;28;20694;-83
2021/05/21 07:45:52;;;;;;;5.10;2.23;;;13.30;74.60;;;;;;5056309;28;20183;-83
2021/05/21 07:48:18;;;;;;;4.17;2.00;;;13.10;73.80;;;;;;5055938;28;20260;-83
2021/05/21 07:50:43;;;;;;;7.37;2.43;;;13.10;75.70;;;;;;5055863;28;20216;-83
2021/05/21 07:53:12;;;;;;;5.10;2.10;;;13.10;74.70;;;;;;5056342;28;20615;-83
2021/05/21 07:55:38;;;;;;;4.67;1.90;;;13.20;74.50;;;;;;5056252;28;20168;-82
2021/05/21 07:58:06;;;;;;;3.47;1.50;;;12.90;74.80;;;;;;5056092;28;20176;-83
2021/05/21 08:00:31;;;;;;;8.33;2.00;;;12.70;76.30;;;;;;5056182;28;20570;-83
2021/05/21 08:02:57;;;;;;;4.53;1.93;;;12.30;77.50;;;;;;5056274;28;20179;-85
2021/05/21 08:05:23;;;;;;;14.17;2.07;;;12.30;79.20;;;;;;5037929;28;20638;-85
2021/05/21 08:07:50;;;;;;;3.97;2.00;;;12.30;79.20;;;;;;5037645;28;20208;-85
2021/05/21 08:10:17;;;;;;;5.87;2.00;;;12.20;79.30;;;;;;5055831;28;20206;-85
2021/05/21 08:12:43;;;;;;;4.40;2.10;;;12.00;78.90;;;;;;5037212;28;20667;-85
2021/05/21 08:15:09;;;;;;;5.40;1.90;;;12.10;79.10;;;;;;5055435;28;20176;-85
2021/05/21 08:17:35;;;;;;;5.10;2.60;;;12.00;76.80;;;;;;5055252;28;20640;-85
2021/05/21 08:20:03;;;;;;;4.80;1.80;;;12.00;77.00;;;;;;5056011;28;20202;-85
2021/05/21 08:22:29;;;;;;;5.93;1.87;;;12.10;76.30;;;;;;5037820;28;20184;-85
2021/05/21 08:24:55;;;;;;;7.10;1.90;;;12.10;78.00;;;;;;5037799;28;20176;-85
2021/05/21 08:27:21;;;;;;;4.00;1.63;;;11.90;77.80;;;;;;5037479;28;20210;-85
2021/05/21 08:29:47;;;;;;;6.77;1.90;;;12.00;78.70;;;;;;5055582;28;20199;-85
2021/05/21 08:32:13;;;;;;;2.87;1.37;;;12.10;79.90;;;;;;5055715;28;20164;-85
2021/05/21 08:34:38;;;;;;;5.67;1.83;;;12.20;80.00;;;;;;5055362;28;20183;-85
2021/05/21 08:37:04;;;;;;;5.67;1.77;;;12.20;78.40;;;;;;5037741;28;20363;-85
2021/05/21 08:39:30;;;;;;;4.13;1.50;;;12.20;78.10;;;;;;5037801;28;20234;-85
2021/05/21 08:41:58;;;;;;;7.43;1.90;;;12.20;78.00;;;;;;5037712;28;20561;-85
2021/05/21 08:44:26;;;;;;;4.10;2.00;;;12.10;78.10;;;;;;5055166;28;20686;-85
2021/05/21 08:46:52;;;;;;;9.33;2.17;;;12.20;79.00;;;;;;5037260;28;20187;-85
2021/05/21 08:49:19;;;;;;;4.87;1.97;;;12.20;78.70;;;;;;5054789;28;20211;-85
2021/05/21 08:51:45;;;;;;;4.57;1.67;;;12.20;78.80;;;;;;5054853;28;20173;-85
2021/05/21 08:54:11;;;;;;;3.70;1.80;;;12.20;79.60;;;;;;5037158;28;20187;-85
2021/05/21 08:56:38;;;;;;;3.00;1.50;;;12.10;79.70;;;;;;5037496;28;20175;-85
2021/05/21 08:59:04;;;;;;;5.50;1.63;;;12.10;78.80;;;;;;5038036;28;20206;-85
2021/05/21 09:01:29;;;;;;;10.13;2.10;;;12.10;78.80;;;;;;5038212;28;20226;-85
2021/05/21 09:04:02;;;;;;;6.27;1.93;;;12.20;79.70;;;;;;5038791;28;20176;-85
2021/05/21 09:06:30;;;;;;;6.80;2.20;;;12.30;79.10;;;;;;5037407;28;20183;-85
2021/05/21 09:08:55;;;;;;;14.97;3.63;;;12.50;78.50;;;;;;5036662;28;20215;-85
2021/05/21 09:11:36;;;;;;;9.63;2.57;;;12.60;77.40;;;;;;5036699;28;20180;-85
2021/05/21 09:14:28;;;;;;;9.63;2.40;;;12.60;77.90;;;;;;5054978;28;20164;-85
2021/05/21 09:16:55;;;;;;;13.13;2.97;;;12.60;76.90;;;;;;5051109;28;20222;-85
2021/05/21 09:19:22;;;;;;;11.30;2.73;;;12.60;75.70;;;;;;5036542;28;20195;-85
2021/05/21 09:21:58;;;;;;;11.40;2.23;;;12.60;74.60;;;;;;5054622;28;20180;-85
2021/05/21 09:24:28;;;;;;;7.90;2.63;;;12.60;73.80;;;;;;5054904;28;20224;-85
2021/05/21 09:26:56;;;;;;;10.50;2.43;;;12.70;74.30;;;;;;5037258;28;20180;-85
2021/05/21 09:29:49;;;;;;;17.43;3.23;;;12.70;75.50;;;;;;5055008;28;20699;-85
2021/05/21 09:32:30;;;;;;;17.40;3.00;;;12.70;73.70;;;;;;5055839;28;20619;-85
2021/05/21 09:35:04;;;;;;;17.00;3.23;;;12.80;75.20;;;;;;5055597;28;20160;-85
2021/05/21 09:37:31;;;;;;;14.67;2.77;;;12.90;74.60;;;;;;5037548;28;20547;-85
2021/05/21 09:40:17;;;;;;;10.77;2.63;;;12.80;71.60;;;;;;5054896;28;20691;-85
2021/05/21 09:42:52;;;;;;;15.07;3.47;;;12.90;73.40;;;;;;5037551;28;20164;-85
2021/05/21 09:45:37;;;;;;;14.20;3.17;;;12.90;73.20;;;;;;5054942;28;20254;-85
2021/05/21 09:48:10;;;;;;;14.33;3.23;;;13.10;73.60;;;;;;5055140;28;20196;-85
2021/05/21 09:50:40;;;;;;;11.03;3.13;;;13.30;72.10;;;;;;5037252;28;20325;-85
2021/05/21 09:53:18;;;;;;;10.93;2.93;;;13.40;72.40;;;;;;5054898;28;20230;-84
2021/05/21 09:55:44;;;;;;;11.67;2.90;;;13.80;73.10;;;;;;5037266;28;20163;-85
2021/05/21 09:58:28;;;;;;;12.43;3.40;;;14.00;71.80;;;;;;5037188;28;20176;-85
2021/05/21 10:01:08;;;;;;;15.90;3.20;;;14.20;71.30;;;;;;5036614;28;20691;-85
2021/05/21 10:03:35;;;;;;;14.00;3.73;;;14.70;71.20;;;;;;5054892;28;20175;-85
2021/05/21 10:06:02;;;;;;;12.43;4.03;;;14.50;70.40;;;;;;5054488;28;20172;-85
2021/05/21 10:08:32;;;;;;;10.50;3.20;;;14.80;72.00;;;;;;5036434;28;20202;-84
2021/05/21 10:10:58;;;;;;;11.07;2.83;;;14.80;68.30;;;;;;5036578;28;20635;-85
2021/05/21 10:13:25;;;;;;;11.90;2.70;;;15.00;67.20;;;;;;5054506;28;20709;-85
2021/05/21 10:15:51;;;;;;;17.00;3.43;;;15.00;66.20;;;;;;5054278;28;20661;-85
2021/05/21 10:18:17;;;;;;;10.63;2.87;;;15.30;64.50;;;;;;5035909;28;20184;-85
2021/05/21 10:20:44;;;;;;;11.47;2.83;;;15.60;66.20;;;;;;5036255;28;20196;-85
2021/05/21 10:23:17;;;;;;;14.17;2.97;;;15.60;63.60;;;;;;5036509;28;20560;-85
2021/05/21 10:25:44;;;;;;;14.43;3.30;;;15.80;64.30;;;;;;5019250;28;20192;-85
2021/05/21 10:28:11;;;;;;;11.63;2.90;;;15.50;63.50;;;;;;5053783;28;20207;-85
2021/05/21 10:30:38;;;;;;;13.13;2.93;;;15.50;63.90;;;;;;5053554;28;20202;-85
2021/05/21 10:33:22;;;;;;;11.00;2.70;;;15.80;65.60;;;;;;5035706;28;20223;-85
2021/05/21 10:35:48;;;;;;;5.20;2.43;;;15.90;63.20;;;;;;5035656;28;20164;-85
2021/05/21 10:38:32;;;;;;;8.07;2.67;;;15.80;63.10;;;;;;5035470;28;20267;-85
2021/05/21 10:41:17;;;;;;;10.83;2.70;;;15.90;62.60;;;;;;5053706;28;20630;-85
2021/05/21 10:43:50;;;;;;;9.27;2.57;;;15.90;63.60;;;;;;5057195;28;20262;-85
2021/05/21 10:46:18;;;;;;;10.97;2.60;;;16.20;63.20;;;;;;5039403;28;20180;-85
2021/05/21 10:49:02;;;;;;;19.07;3.17;;;16.40;64.80;;;;;;5039010;28;20218;-85
2021/05/21 10:51:47;;;;;;;10.60;2.75;;;16.70;63.20;;;;;;5057053;28;20186;-85
2021/05/21 10:54:28;;;;;;;16.88;2.58;;;16.80;60.10;;;;;;5057097;28;20152;-86
2021/05/21 10:57:15;;;;;;;13.13;2.50;;;16.80;58.60;;;;;;5057145;28;20194;-85
2021/05/21 11:00:01;;;;;;;11.13;2.33;;;16.70;57.50;;;;;;5056147;28;20629;-85
2021/05/21 11:02:26;;;;;;;9.65;2.80;;;16.50;59.30;;;;;;5056716;28;20195;-85
2021/05/21 11:05:15;;;;;;;11.43;2.25;;;16.50;57.40;;;;;;5039251;28;20610;-85
2021/05/21 11:07:44;;;;;;;10.65;3.45;;;16.40;58.10;;;;;;5038683;28;20245;-86
2021/05/21 11:10:26;;;;;;;10.57;2.90;;;16.50;56.70;;;;;;5056311;28;20491;-86
2021/05/21 11:12:59;;;;;;;14.27;2.63;;;16.30;60.30;;;;;;5057033;28;20176;-86
2021/05/21 11:15:51;;;;;;;11.37;2.70;;;15.80;59.40;;;;;;5038982;28;20165;-85
2021/05/21 11:18:17;;;;;;;9.43;2.70;;;15.70;60.70;;;;;;5056993;28;20180;-85
2021/05/21 11:20:52;;;;;;;14.40;3.33;;;15.60;60.50;;;;;;5038781;28;20249;-85
2021/05/21 11:23:21;;;;;;;14.23;2.77;;;15.40;59.40;;;;;;5056425;28;20172;-86
2021/05/21 11:26:26;;;;;;;12.63;3.38;;;15.50;59.10;;;;;;5037965;28;20420;-85
2021/05/21 11:28:59;;;;;;;12.80;3.30;;;15.50;59.60;;;;;;5036974;28;20947;-85
2021/05/21 11:31:31;;;;;;;14.15;3.20;;;15.40;61.60;;;;;;5055752;28;20408;-85
2021/05/21 11:33:59;;;;;;;12.87;3.43;;;15.40;62.80;;;;;;5037764;28;20443;-85
2021/05/21 11:36:36;;;;;;;11.00;2.60;;;15.20;62.10;;;;;;5056219;28;20247;-85
2021/05/21 11:39:06;;;;;;;9.80;2.80;;;15.00;61.40;;;;;;5037080;28;20426;-85
2021/05/21 11:41:34;;;;;;;12.17;2.67;;;14.90;62.40;;;;;;5056179;28;20235;-85
2021/05/21 11:44:10;;;;;;;10.97;2.73;;;14.80;61.20;;;;;;5038376;28;20176;-84
2021/05/21 11:46:42;;;;;;;3.97;1.73;;;14.80;62.80;;;;;;5038125;28;20163;-84
2021/05/21 11:49:09;;;;;;;8.37;2.73;;;14.30;66.00;;;;;;5055654;28;20318;-84
2021/05/21 11:51:35;;;;;;;8.87;2.40;;;14.10;68.30;;;;;;5038412;28;20156;-84
2021/05/21 11:54:03;;;;;;;7.80;2.47;;;14.20;68.80;;;;;;5037598;28;20179;-84
2021/05/21 11:56:32;;;;;;;8.30;2.20;;;14.70;69.70;;;;;;5038028;28;20258;-84
2021/05/21 11:59:02;;;;;;;10.30;2.20;;;15.30;69.00;;;;;;5055945;28;20217;-84
2021/05/21 12:01:29;;;;;;;10.27;2.60;;;15.40;66.90;;;;;;5037895;28;20176;-84
2021/05/21 12:03:55;;;;;;;13.53;2.83;;;15.50;67.60;;;;;;5037830;28;20299;-84
2021/05/21 12:06:20;;;;;;;10.17;2.93;;;15.40;63.90;;;;;;5055876;28;20664;-84
2021/05/21 12:08:47;;;;;;;8.90;2.60;;;15.70;65.10;;;;;;5037661;28;20200;-84
2021/05/21 12:11:16;;;;;;;4.97;2.00;;;15.70;66.60;;;;;;5037673;28;20173;-85
2021/05/21 12:13:43;;;;;;;10.73;2.77;;;15.10;66.40;;;;;;5055616;28;20166;-84
2021/05/21 12:16:18;;;;;;;14.27;3.37;;;15.20;65.20;;;;;;5037630;28;20204;-84
2021/05/21 12:18:45;;;;;;;9.90;2.33;;;15.50;66.90;;;;;;5037500;28;20278;-85
2021/05/21 12:21:10;;;;;;;6.27;2.57;;;15.60;63.90;;;;;;5055377;28;20172;-84
2021/05/21 12:23:41;;;;;;;10.77;3.10;;;15.60;66.50;;;;;;5055575;28;20180;-84
2021/05/21 12:26:10;;;;;;;12.83;2.90;;;15.70;64.00;;;;;;5037597;28;20645;-85
2021/05/21 12:28:37;;;;;;;10.60;2.87;;;15.70;64.10;;;;;;5037289;28;20211;-84
2021/05/21 12:31:04;;;;;;;9.47;2.73;;;15.80;64.80;;;;;;5037317;28;20211;-84
2021/05/21 12:33:34;;;;;;;6.53;2.47;;;15.90;65.50;;;;;;5037392;28;20172;-84
2021/05/21 12:36:04;;;;;;;8.73;2.77;;;16.20;63.90;;;;;;5055276;28;20255;-85
2021/05/21 12:38:31;;;;;;;7.53;2.40;;;16.50;64.80;;;;;;5038076;28;20215;-84
2021/05/21 12:40:58;;;;;;;8.60;2.03;;;16.00;62.50;;;;;;5054921;28;20274;-85
2021/05/21 12:43:31;;;;;;;8.87;2.27;;;15.50;64.00;;;;;;5037272;28;20180;-85
2021/05/21 12:46:05;;;;;;;4.90;1.70;;;15.30;64.60;;;;;;5055035;28;20156;-84